sensor_id;sensor_type;location;lat;lon;timestamp;P1;durP1;ratioP1;P2;durP2;ratioP2
57752;SDS011;43583;53.132;6.574;2023-04-15T00:00:13;4.45;;;1.92;;
57752;SDS011;43583;53.132;6.574;2023-04-15T00:02:39;7.63;;;2.97;;
57752;SDS011;43583;53.132;6.574;2023-04-15T00:05:06;9.93;;;2.60;;
57752;SDS011;43583;53.132;6.574;2023-04-15T00:07:31;7.05;;;2.75;;
57752;SDS011;43583;53.132;6.574;2023-04-15T00:09:57;9.27;;;2.72;;
57752;SDS011;43583;53.132;6.574;2023-04-15T00:12:26;6.07;;;3.03;;
57752;SDS011;43583;53.132;6.574;2023-04-15T00:14:52;7.90;;;2.97;;
57752;SDS011;43583;53.132;6.574;2023-04-15T00:17:18;12.75;;;2.83;;
57752;SDS011;43583;53.132;6.574;2023-04-15T00:19:44;12.13;;;3.90;;
57752;SDS011;43583;53.132;6.574;2023-04-15T00:22:10;8.18;;;3.00;;
57752;SDS011;43583;53.132;6.574;2023-04-15T00:24:36;6.57;;;2.63;;
57752;SDS011;43583;53.132;6.574;2023-04-15T00:27:02;8.98;;;3.25;;
57752;SDS011;43583;53.132;6.574;2023-04-15T00:29:28;6.57;;;3.10;;
57752;SDS011;43583;53.132;6.574;2023-04-15T00:31:54;9.20;;;3.30;;
57752;SDS011;43583;53.132;6.574;2023-04-15T00:34:21;8.40;;;3.28;;
57752;SDS011;43583;53.132;6.574;2023-04-15T00:36:47;8.13;;;3.80;;
57752;SDS011;43583;53.132;6.574;2023-04-15T00:39:13;8.70;;;4.05;;
57752;SDS011;43583;53.132;6.574;2023-04-15T00:41:40;12.93;;;4.50;;
57752;SDS011;43583;53.132;6.574;2023-04-15T00:44:06;8.45;;;3.88;;
57752;SDS011;43583;53.132;6.574;2023-04-15T00:46:32;8.85;;;4.47;;
57752;SDS011;43583;53.132;6.574;2023-04-15T00:49:00;7.05;;;3.22;;
57752;SDS011;43583;53.132;6.574;2023-04-15T00:51:28;9.40;;;4.00;;
57752;SDS011;43583;53.132;6.574;2023-04-15T00:53:55;5.95;;;3.40;;
57752;SDS011;43583;53.132;6.574;2023-04-15T00:56:21;6.95;;;3.95;;
57752;SDS011;43583;53.132;6.574;2023-04-15T00:58:48;7.93;;;4.07;;
57752;SDS011;43583;53.132;6.574;2023-04-15T01:01:15;9.13;;;5.20;;
57752;SDS011;43583;53.132;6.574;2023-04-15T01:03:45;7.25;;;4.18;;
57752;SDS011;43583;53.132;6.574;2023-04-15T01:06:11;10.85;;;4.00;;
57752;SDS011;43583;53.132;6.574;2023-04-15T01:08:38;9.93;;;4.55;;
57752;SDS011;43583;53.132;6.574;2023-04-15T01:11:03;8.93;;;4.10;;
57752;SDS011;43583;53.132;6.574;2023-04-15T01:13:29;8.43;;;4.88;;
57752;SDS011;43583;53.132;6.574;2023-04-15T01:15:55;9.15;;;3.92;;
57752;SDS011;43583;53.132;6.574;2023-04-15T01:18:21;9.30;;;4.60;;
57752;SDS011;43583;53.132;6.574;2023-04-15T01:20:47;12.07;;;4.25;;
57752;SDS011;43583;53.132;6.574;2023-04-15T01:23:13;7.43;;;4.38;;
57752;SDS011;43583;53.132;6.574;2023-04-15T01:25:41;11.40;;;6.10;;
57752;SDS011;43583;53.132;6.574;2023-04-15T01:28:07;13.00;;;4.65;;
57752;SDS011;43583;53.132;6.574;2023-04-15T01:30:33;11.50;;;4.90;;
57752;SDS011;43583;53.132;6.574;2023-04-15T01:32:59;6.22;;;4.68;;
57752;SDS011;43583;53.132;6.574;2023-04-15T01:35:25;10.02;;;4.78;;
57752;SDS011;43583;53.132;6.574;2023-04-15T01:37:51;6.70;;;4.35;;
57752;SDS011;43583;53.132;6.574;2023-04-15T01:40:18;8.43;;;4.55;;
57752;SDS011;43583;53.132;6.574;2023-04-15T01:42:44;12.63;;;4.85;;
57752;SDS011;43583;53.132;6.574;2023-04-15T01:45:10;9.15;;;4.90;;
57752;SDS011;43583;53.132;6.574;2023-04-15T01:47:37;11.32;;;5.18;;
57752;SDS011;43583;53.132;6.574;2023-04-15T01:50:03;7.50;;;3.88;;
57752;SDS011;43583;53.132;6.574;2023-04-15T01:52:29;8.30;;;4.63;;
57752;SDS011;43583;53.132;6.574;2023-04-15T01:54:54;9.75;;;4.68;;
57752;SDS011;43583;53.132;6.574;2023-04-15T01:57:20;9.07;;;4.63;;
57752;SDS011;43583;53.132;6.574;2023-04-15T01:59:45;9.73;;;4.57;;
57752;SDS011;43583;53.132;6.574;2023-04-15T02:02:11;9.10;;;4.40;;
57752;SDS011;43583;53.132;6.574;2023-04-15T02:04:37;9.85;;;4.53;;
57752;SDS011;43583;53.132;6.574;2023-04-15T02:07:02;8.90;;;4.95;;
57752;SDS011;43583;53.132;6.574;2023-04-15T02:09:28;12.75;;;5.53;;
57752;SDS011;43583;53.132;6.574;2023-04-15T02:11:53;8.73;;;4.57;;
57752;SDS011;43583;53.132;6.574;2023-04-15T02:14:19;10.00;;;5.32;;
57752;SDS011;43583;53.132;6.574;2023-04-15T02:16:45;8.90;;;5.03;;
57752;SDS011;43583;53.132;6.574;2023-04-15T02:19:10;7.97;;;4.22;;
57752;SDS011;43583;53.132;6.574;2023-04-15T02:21:36;10.20;;;5.05;;
57752;SDS011;43583;53.132;6.574;2023-04-15T02:24:02;11.70;;;5.47;;
57752;SDS011;43583;53.132;6.574;2023-04-15T02:26:28;15.05;;;6.28;;
57752;SDS011;43583;53.132;6.574;2023-04-15T02:28:56;9.30;;;5.10;;
57752;SDS011;43583;53.132;6.574;2023-04-15T02:31:22;13.23;;;6.28;;
57752;SDS011;43583;53.132;6.574;2023-04-15T02:33:47;9.13;;;5.22;;
57752;SDS011;43583;53.132;6.574;2023-04-15T02:36:13;10.00;;;5.60;;
57752;SDS011;43583;53.132;6.574;2023-04-15T02:38:38;10.73;;;5.20;;
57752;SDS011;43583;53.132;6.574;2023-04-15T02:41:06;11.43;;;5.30;;
57752;SDS011;43583;53.132;6.574;2023-04-15T02:43:33;9.45;;;5.55;;
57752;SDS011;43583;53.132;6.574;2023-04-15T02:45:59;8.68;;;5.25;;
57752;SDS011;43583;53.132;6.574;2023-04-15T02:48:24;8.07;;;4.35;;
57752;SDS011;43583;53.132;6.574;2023-04-15T02:50:50;10.07;;;5.13;;
57752;SDS011;43583;53.132;6.574;2023-04-15T02:53:15;10.68;;;5.60;;
57752;SDS011;43583;53.132;6.574;2023-04-15T02:55:41;10.30;;;5.50;;
57752;SDS011;43583;53.132;6.574;2023-04-15T02:58:07;11.38;;;6.18;;
57752;SDS011;43583;53.132;6.574;2023-04-15T03:00:32;14.07;;;6.57;;
57752;SDS011;43583;53.132;6.574;2023-04-15T03:03:01;13.25;;;5.80;;
57752;SDS011;43583;53.132;6.574;2023-04-15T03:05:28;12.70;;;6.07;;
57752;SDS011;43583;53.132;6.574;2023-04-15T03:07:53;13.90;;;6.68;;
57752;SDS011;43583;53.132;6.574;2023-04-15T03:10:19;12.70;;;6.03;;
57752;SDS011;43583;53.132;6.574;2023-04-15T03:12:46;11.73;;;6.57;;
57752;SDS011;43583;53.132;6.574;2023-04-15T03:15:11;10.60;;;5.47;;
57752;SDS011;43583;53.132;6.574;2023-04-15T03:17:37;12.07;;;6.30;;
57752;SDS011;43583;53.132;6.574;2023-04-15T03:20:03;10.30;;;5.57;;
57752;SDS011;43583;53.132;6.574;2023-04-15T03:22:33;11.52;;;5.95;;
57752;SDS011;43583;53.132;6.574;2023-04-15T03:24:58;10.13;;;5.05;;
57752;SDS011;43583;53.132;6.574;2023-04-15T03:27:24;8.35;;;5.15;;
57752;SDS011;43583;53.132;6.574;2023-04-15T03:29:50;10.40;;;5.05;;
57752;SDS011;43583;53.132;6.574;2023-04-15T03:32:16;10.57;;;5.55;;
57752;SDS011;43583;53.132;6.574;2023-04-15T03:34:41;12.50;;;6.15;;
57752;SDS011;43583;53.132;6.574;2023-04-15T03:37:07;10.00;;;5.10;;
57752;SDS011;43583;53.132;6.574;2023-04-15T03:39:33;12.52;;;6.05;;
57752;SDS011;43583;53.132;6.574;2023-04-15T03:41:59;12.80;;;5.97;;
57752;SDS011;43583;53.132;6.574;2023-04-15T03:44:25;12.68;;;5.60;;
57752;SDS011;43583;53.132;6.574;2023-04-15T03:46:51;10.88;;;5.28;;
57752;SDS011;43583;53.132;6.574;2023-04-15T03:49:17;13.95;;;6.55;;
57752;SDS011;43583;53.132;6.574;2023-04-15T03:51:43;13.00;;;6.45;;
57752;SDS011;43583;53.132;6.574;2023-04-15T03:54:09;12.95;;;6.25;;
57752;SDS011;43583;53.132;6.574;2023-04-15T03:56:35;13.25;;;6.30;;
57752;SDS011;43583;53.132;6.574;2023-04-15T03:59:01;16.00;;;7.78;;
57752;SDS011;43583;53.132;6.574;2023-04-15T04:01:27;17.10;;;6.68;;
57752;SDS011;43583;53.132;6.574;2023-04-15T04:03:52;13.30;;;7.38;;
57752;SDS011;43583;53.132;6.574;2023-04-15T04:06:18;17.70;;;8.65;;
57752;SDS011;43583;53.132;6.574;2023-04-15T04:08:43;14.70;;;8.15;;
57752;SDS011;43583;53.132;6.574;2023-04-15T04:11:09;17.77;;;9.05;;
57752;SDS011;43583;53.132;6.574;2023-04-15T04:13:35;20.70;;;9.93;;
57752;SDS011;43583;53.132;6.574;2023-04-15T04:16:00;20.23;;;8.55;;
57752;SDS011;43583;53.132;6.574;2023-04-15T04:18:28;17.85;;;8.18;;
57752;SDS011;43583;53.132;6.574;2023-04-15T04:20:53;17.02;;;8.52;;
57752;SDS011;43583;53.132;6.574;2023-04-15T04:23:19;19.00;;;8.95;;
57752;SDS011;43583;53.132;6.574;2023-04-15T04:25:45;19.08;;;8.88;;
57752;SDS011;43583;53.132;6.574;2023-04-15T04:28:10;18.65;;;8.98;;
57752;SDS011;43583;53.132;6.574;2023-04-15T04:30:36;25.92;;;10.02;;
57752;SDS011;43583;53.132;6.574;2023-04-15T04:33:02;17.23;;;8.55;;
57752;SDS011;43583;53.132;6.574;2023-04-15T04:35:27;16.92;;;8.98;;
57752;SDS011;43583;53.132;6.574;2023-04-15T04:37:53;19.75;;;9.18;;
57752;SDS011;43583;53.132;6.574;2023-04-15T04:40:18;17.80;;;8.80;;
57752;SDS011;43583;53.132;6.574;2023-04-15T04:42:44;16.27;;;9.23;;
57752;SDS011;43583;53.132;6.574;2023-04-15T04:45:10;19.08;;;9.20;;
57752;SDS011;43583;53.132;6.574;2023-04-15T04:47:35;17.95;;;9.68;;
57752;SDS011;43583;53.132;6.574;2023-04-15T04:50:01;20.10;;;9.07;;
57752;SDS011;43583;53.132;6.574;2023-04-15T04:52:27;21.40;;;11.63;;
57752;SDS011;43583;53.132;6.574;2023-04-15T04:54:53;18.85;;;10.25;;
57752;SDS011;43583;53.132;6.574;2023-04-15T04:57:18;22.98;;;11.13;;
57752;SDS011;43583;53.132;6.574;2023-04-15T04:59:44;19.13;;;10.43;;
57752;SDS011;43583;53.132;6.574;2023-04-15T05:02:09;19.45;;;10.13;;
57752;SDS011;43583;53.132;6.574;2023-04-15T05:04:35;17.13;;;9.35;;
57752;SDS011;43583;53.132;6.574;2023-04-15T05:07:01;17.30;;;9.65;;
57752;SDS011;43583;53.132;6.574;2023-04-15T05:09:26;20.40;;;9.77;;
57752;SDS011;43583;53.132;6.574;2023-04-15T05:11:52;18.58;;;9.73;;
57752;SDS011;43583;53.132;6.574;2023-04-15T05:14:18;19.83;;;9.82;;
57752;SDS011;43583;53.132;6.574;2023-04-15T05:16:43;17.30;;;9.45;;
57752;SDS011;43583;53.132;6.574;2023-04-15T05:19:09;21.15;;;10.38;;
57752;SDS011;43583;53.132;6.574;2023-04-15T05:21:34;17.90;;;9.93;;
57752;SDS011;43583;53.132;6.574;2023-04-15T05:24:00;20.55;;;10.50;;
57752;SDS011;43583;53.132;6.574;2023-04-15T05:26:26;21.63;;;11.25;;
57752;SDS011;43583;53.132;6.574;2023-04-15T05:28:52;23.27;;;11.00;;
57752;SDS011;43583;53.132;6.574;2023-04-15T05:31:17;20.92;;;10.93;;
57752;SDS011;43583;53.132;6.574;2023-04-15T05:33:43;18.75;;;9.65;;
57752;SDS011;43583;53.132;6.574;2023-04-15T05:36:09;18.05;;;9.45;;
57752;SDS011;43583;53.132;6.574;2023-04-15T05:38:36;14.95;;;8.57;;
57752;SDS011;43583;53.132;6.574;2023-04-15T05:41:01;13.48;;;7.60;;
57752;SDS011;43583;53.132;6.574;2023-04-15T05:43:27;13.13;;;7.72;;
57752;SDS011;43583;53.132;6.574;2023-04-15T05:45:52;12.70;;;6.85;;
57752;SDS011;43583;53.132;6.574;2023-04-15T05:48:18;8.98;;;5.57;;
57752;SDS011;43583;53.132;6.574;2023-04-15T05:50:43;9.82;;;5.65;;
57752;SDS011;43583;53.132;6.574;2023-04-15T05:53:09;9.63;;;6.47;;
57752;SDS011;43583;53.132;6.574;2023-04-15T05:55:35;8.73;;;5.38;;
57752;SDS011;43583;53.132;6.574;2023-04-15T05:58:01;8.38;;;5.53;;
57752;SDS011;43583;53.132;6.574;2023-04-15T06:00:27;8.25;;;5.22;;
57752;SDS011;43583;53.132;6.574;2023-04-15T06:02:53;7.07;;;5.25;;
57752;SDS011;43583;53.132;6.574;2023-04-15T06:05:20;7.03;;;4.68;;
57752;SDS011;43583;53.132;6.574;2023-04-15T06:07:46;8.35;;;4.75;;
57752;SDS011;43583;53.132;6.574;2023-04-15T06:10:11;7.97;;;4.88;;
57752;SDS011;43583;53.132;6.574;2023-04-15T06:12:37;7.38;;;4.85;;
57752;SDS011;43583;53.132;6.574;2023-04-15T06:15:02;8.88;;;5.72;;
57752;SDS011;43583;53.132;6.574;2023-04-15T06:17:30;7.15;;;4.45;;
57752;SDS011;43583;53.132;6.574;2023-04-15T06:19:56;8.00;;;4.78;;
57752;SDS011;43583;53.132;6.574;2023-04-15T06:22:22;10.35;;;4.68;;
57752;SDS011;43583;53.132;6.574;2023-04-15T06:24:48;6.78;;;4.25;;
57752;SDS011;43583;53.132;6.574;2023-04-15T06:27:15;6.88;;;4.57;;
57752;SDS011;43583;53.132;6.574;2023-04-15T06:29:40;8.57;;;4.78;;
57752;SDS011;43583;53.132;6.574;2023-04-15T06:32:06;7.95;;;4.68;;
57752;SDS011;43583;53.132;6.574;2023-04-15T06:34:32;7.15;;;4.00;;
57752;SDS011;43583;53.132;6.574;2023-04-15T06:36:58;5.90;;;4.28;;
57752;SDS011;43583;53.132;6.574;2023-04-15T06:39:24;7.40;;;4.20;;
57752;SDS011;43583;53.132;6.574;2023-04-15T06:41:50;9.50;;;4.78;;
57752;SDS011;43583;53.132;6.574;2023-04-15T06:44:16;5.10;;;3.58;;
57752;SDS011;43583;53.132;6.574;2023-04-15T06:46:42;6.07;;;4.15;;
57752;SDS011;43583;53.132;6.574;2023-04-15T06:49:08;6.57;;;4.25;;
57752;SDS011;43583;53.132;6.574;2023-04-15T06:51:34;8.13;;;3.92;;
57752;SDS011;43583;53.132;6.574;2023-04-15T06:54:00;6.75;;;3.65;;
57752;SDS011;43583;53.132;6.574;2023-04-15T06:56:26;6.95;;;4.05;;
57752;SDS011;43583;53.132;6.574;2023-04-15T06:58:52;6.88;;;3.83;;
57752;SDS011;43583;53.132;6.574;2023-04-15T07:01:18;6.22;;;3.70;;
57752;SDS011;43583;53.132;6.574;2023-04-15T07:03:43;6.70;;;3.97;;
57752;SDS011;43583;53.132;6.574;2023-04-15T07:06:10;8.38;;;4.25;;
57752;SDS011;43583;53.132;6.574;2023-04-15T07:08:38;7.47;;;3.67;;
57752;SDS011;43583;53.132;6.574;2023-04-15T07:11:04;6.32;;;3.58;;
57752;SDS011;43583;53.132;6.574;2023-04-15T07:13:30;6.80;;;3.45;;
57752;SDS011;43583;53.132;6.574;2023-04-15T07:15:56;5.40;;;3.53;;
57752;SDS011;43583;53.132;6.574;2023-04-15T07:18:22;5.60;;;3.88;;
57752;SDS011;43583;53.132;6.574;2023-04-15T07:20:48;7.35;;;4.05;;
57752;SDS011;43583;53.132;6.574;2023-04-15T07:23:13;7.88;;;3.40;;
57752;SDS011;43583;53.132;6.574;2023-04-15T07:25:39;6.55;;;3.97;;
57752;SDS011;43583;53.132;6.574;2023-04-15T07:28:05;8.30;;;3.58;;
57752;SDS011;43583;53.132;6.574;2023-04-15T07:30:30;7.78;;;3.55;;
57752;SDS011;43583;53.132;6.574;2023-04-15T07:32:57;9.23;;;3.75;;
57752;SDS011;43583;53.132;6.574;2023-04-15T07:35:23;6.03;;;3.83;;
57752;SDS011;43583;53.132;6.574;2023-04-15T07:37:50;7.82;;;3.17;;
57752;SDS011;43583;53.132;6.574;2023-04-15T07:40:16;7.40;;;3.60;;
57752;SDS011;43583;53.132;6.574;2023-04-15T07:42:42;5.13;;;3.30;;
57752;SDS011;43583;53.132;6.574;2023-04-15T07:45:08;5.35;;;2.78;;
57752;SDS011;43583;53.132;6.574;2023-04-15T07:47:34;6.88;;;3.25;;
57752;SDS011;43583;53.132;6.574;2023-04-15T07:50:00;5.40;;;3.80;;
57752;SDS011;43583;53.132;6.574;2023-04-15T07:52:26;6.75;;;2.70;;
57752;SDS011;43583;53.132;6.574;2023-04-15T07:54:52;4.75;;;3.08;;
57752;SDS011;43583;53.132;6.574;2023-04-15T07:57:18;5.60;;;3.55;;
57752;SDS011;43583;53.132;6.574;2023-04-15T07:59:43;5.35;;;2.70;;
57752;SDS011;43583;53.132;6.574;2023-04-15T08:02:09;7.18;;;2.78;;
57752;SDS011;43583;53.132;6.574;2023-04-15T08:04:35;5.60;;;2.78;;
57752;SDS011;43583;53.132;6.574;2023-04-15T08:07:01;6.05;;;2.70;;
57752;SDS011;43583;53.132;6.574;2023-04-15T08:09:28;4.93;;;2.72;;
57752;SDS011;43583;53.132;6.574;2023-04-15T08:11:53;6.40;;;3.30;;
57752;SDS011;43583;53.132;6.574;2023-04-15T08:14:21;5.75;;;3.03;;
57752;SDS011;43583;53.132;6.574;2023-04-15T08:16:46;5.32;;;2.40;;
57752;SDS011;43583;53.132;6.574;2023-04-15T08:19:12;5.38;;;2.80;;
57752;SDS011;43583;53.132;6.574;2023-04-15T08:21:38;3.35;;;2.58;;
57752;SDS011;43583;53.132;6.574;2023-04-15T08:24:04;6.32;;;2.22;;
57752;SDS011;43583;53.132;6.574;2023-04-15T08:26:31;4.00;;;2.20;;
57752;SDS011;43583;53.132;6.574;2023-04-15T08:28:56;7.10;;;2.13;;
57752;SDS011;43583;53.132;6.574;2023-04-15T08:31:22;3.67;;;1.58;;
57752;SDS011;43583;53.132;6.574;2023-04-15T08:33:48;3.92;;;1.90;;
57752;SDS011;43583;53.132;6.574;2023-04-15T08:36:16;5.85;;;2.28;;
57752;SDS011;43583;53.132;6.574;2023-04-15T08:38:44;5.90;;;1.83;;
57752;SDS011;43583;53.132;6.574;2023-04-15T08:41:20;3.72;;;1.48;;
57752;SDS011;43583;53.132;6.574;2023-04-15T08:43:55;4.00;;;1.70;;
57752;SDS011;43583;53.132;6.574;2023-04-15T08:46:22;4.18;;;1.50;;
57752;SDS011;43583;53.132;6.574;2023-04-15T08:48:49;4.80;;;1.30;;
57752;SDS011;43583;53.132;6.574;2023-04-15T08:51:16;5.32;;;1.70;;
57752;SDS011;43583;53.132;6.574;2023-04-15T08:53:43;3.70;;;1.73;;
57752;SDS011;43583;53.132;6.574;2023-04-15T08:56:10;3.88;;;1.17;;
57752;SDS011;43583;53.132;6.574;2023-04-15T08:58:38;3.45;;;1.02;;
57752;SDS011;43583;53.132;6.574;2023-04-15T09:01:04;5.30;;;1.35;;
57752;SDS011;43583;53.132;6.574;2023-04-15T09:03:29;5.78;;;0.75;;
57752;SDS011;43583;53.132;6.574;2023-04-15T09:05:56;1.73;;;0.60;;
57752;SDS011;43583;53.132;6.574;2023-04-15T09:08:22;2.25;;;0.50;;
57752;SDS011;43583;53.132;6.574;2023-04-15T09:10:48;5.85;;;0.80;;
57752;SDS011;43583;53.132;6.574;2023-04-15T09:13:14;3.45;;;0.60;;
57752;SDS011;43583;53.132;6.574;2023-04-15T09:15:40;3.08;;;0.80;;
57752;SDS011;43583;53.132;6.574;2023-04-15T09:18:05;1.50;;;0.45;;
57752;SDS011;43583;53.132;6.574;2023-04-15T09:20:38;1.67;;;0.28;;
57752;SDS011;43583;53.132;6.574;2023-04-15T09:23:11;3.50;;;0.60;;
57752;SDS011;43583;53.132;6.574;2023-04-15T09:25:38;2.28;;;0.60;;
57752;SDS011;43583;53.132;6.574;2023-04-15T09:28:06;1.23;;;0.40;;
57752;SDS011;43583;53.132;6.574;2023-04-15T09:30:32;4.40;;;0.68;;
57752;SDS011;43583;53.132;6.574;2023-04-15T09:32:59;1.58;;;0.40;;
57752;SDS011;43583;53.132;6.574;2023-04-15T09:35:26;1.08;;;0.22;;
57752;SDS011;43583;53.132;6.574;2023-04-15T09:37:52;0.75;;;0.30;;
57752;SDS011;43583;53.132;6.574;2023-04-15T09:42:58;0.82;;;0.20;;
57752;SDS011;43583;53.132;6.574;2023-04-15T09:45:26;1.05;;;0.10;;
57752;SDS011;43583;53.132;6.574;2023-04-15T09:47:52;2.58;;;0.20;;
57752;SDS011;43583;53.132;6.574;2023-04-15T09:50:18;0.52;;;0.10;;
57752;SDS011;43583;53.132;6.574;2023-04-15T09:52:44;0.55;;;0.20;;
57752;SDS011;43583;53.132;6.574;2023-04-15T09:55:11;0.82;;;0.30;;
57752;SDS011;43583;53.132;6.574;2023-04-15T09:57:38;3.35;;;0.20;;
57752;SDS011;43583;53.132;6.574;2023-04-15T10:00:08;0.60;;;0.20;;
57752;SDS011;43583;53.132;6.574;2023-04-15T10:02:35;1.92;;;0.50;;
57752;SDS011;43583;53.132;6.574;2023-04-15T10:05:02;0.85;;;0.28;;
57752;SDS011;43583;53.132;6.574;2023-04-15T10:07:28;2.47;;;0.47;;
57752;SDS011;43583;53.132;6.574;2023-04-15T10:10:04;1.00;;;0.57;;
57752;SDS011;43583;53.132;6.574;2023-04-15T10:13:32;2.17;;;0.20;;
57752;SDS011;43583;53.132;6.574;2023-04-15T10:16:03;1.73;;;0.20;;
57752;SDS011;43583;53.132;6.574;2023-04-15T10:18:37;1.40;;;0.20;;
57752;SDS011;43583;53.132;6.574;2023-04-15T10:21:07;0.55;;;0.10;;
57752;SDS011;43583;53.132;6.574;2023-04-15T10:23:33;0.90;;;0.20;;
57752;SDS011;43583;53.132;6.574;2023-04-15T10:25:58;1.40;;;0.20;;
57752;SDS011;43583;53.132;6.574;2023-04-15T10:28:25;0.80;;;0.45;;
57752;SDS011;43583;53.132;6.574;2023-04-15T10:30:51;0.57;;;0.10;;
57752;SDS011;43583;53.132;6.574;2023-04-15T10:33:19;1.85;;;0.20;;
57752;SDS011;43583;53.132;6.574;2023-04-15T10:35:47;0.90;;;0.17;;
57752;SDS011;43583;53.132;6.574;2023-04-15T10:38:30;0.88;;;0.30;;
57752;SDS011;43583;53.132;6.574;2023-04-15T10:41:17;1.75;;;0.25;;
57752;SDS011;43583;53.132;6.574;2023-04-15T10:43:48;3.58;;;0.20;;
57752;SDS011;43583;53.132;6.574;2023-04-15T10:46:24;1.77;;;0.10;;
57752;SDS011;43583;53.132;6.574;2023-04-15T10:49:13;2.38;;;0.35;;
57752;SDS011;43583;53.132;6.574;2023-04-15T10:51:43;1.73;;;0.30;;
57752;SDS011;43583;53.132;6.574;2023-04-15T10:55:32;1.15;;;0.20;;
57752;SDS011;43583;53.132;6.574;2023-04-15T10:57:51;2.75;;;0.28;;
57752;SDS011;43583;53.132;6.574;2023-04-15T11:00:18;4.47;;;0.45;;
57752;SDS011;43583;53.132;6.574;2023-04-15T11:02:52;1.42;;;0.25;;
57752;SDS011;43583;53.132;6.574;2023-04-15T11:05:18;5.38;;;0.95;;
57752;SDS011;43583;53.132;6.574;2023-04-15T11:12:38;2.47;;;0.35;;
57752;SDS011;43583;53.132;6.574;2023-04-15T11:17:48;5.00;;;0.40;;
57752;SDS011;43583;53.132;6.574;2023-04-15T11:20:15;2.67;;;0.30;;
57752;SDS011;43583;53.132;6.574;2023-04-15T11:22:48;2.08;;;0.45;;
57752;SDS011;43583;53.132;6.574;2023-04-15T11:25:22;3.60;;;0.30;;
57752;SDS011;43583;53.132;6.574;2023-04-15T11:27:49;1.27;;;0.30;;
57752;SDS011;43583;53.132;6.574;2023-04-15T11:30:18;3.45;;;0.20;;
57752;SDS011;43583;53.132;6.574;2023-04-15T11:32:46;3.15;;;0.45;;
57752;SDS011;43583;53.132;6.574;2023-04-15T11:35:12;2.42;;;0.30;;
57752;SDS011;43583;53.132;6.574;2023-04-15T11:37:38;4.20;;;0.30;;
57752;SDS011;43583;53.132;6.574;2023-04-15T11:40:03;4.68;;;0.65;;
57752;SDS011;43583;53.132;6.574;2023-04-15T11:42:30;2.00;;;0.22;;
57752;SDS011;43583;53.132;6.574;2023-04-15T11:45:09;3.50;;;0.25;;
57752;SDS011;43583;53.132;6.574;2023-04-15T11:47:36;2.00;;;0.30;;
57752;SDS011;43583;53.132;6.574;2023-04-15T11:50:13;3.00;;;0.22;;
57752;SDS011;43583;53.132;6.574;2023-04-15T11:52:40;1.08;;;0.20;;
57752;SDS011;43583;53.132;6.574;2023-04-15T11:55:27;7.47;;;0.40;;
57752;SDS011;43583;53.132;6.574;2023-04-15T11:58:12;1.90;;;0.65;;
57752;SDS011;43583;53.132;6.574;2023-04-15T12:00:50;5.20;;;0.30;;
57752;SDS011;43583;53.132;6.574;2023-04-15T12:03:37;3.33;;;0.30;;
57752;SDS011;43583;53.132;6.574;2023-04-15T12:13:55;3.00;;;0.40;;
57752;SDS011;43583;53.132;6.574;2023-04-15T12:16:23;2.83;;;0.15;;
57752;SDS011;43583;53.132;6.574;2023-04-15T12:18:49;2.22;;;0.30;;
57752;SDS011;43583;53.132;6.574;2023-04-15T12:21:23;6.60;;;0.55;;
57752;SDS011;43583;53.132;6.574;2023-04-15T12:23:51;2.38;;;0.20;;
57752;SDS011;43583;53.132;6.574;2023-04-15T12:26:17;5.13;;;0.30;;
57752;SDS011;43583;53.132;6.574;2023-04-15T12:28:49;2.08;;;0.32;;
57752;SDS011;43583;53.132;6.574;2023-04-15T12:31:28;3.20;;;0.30;;
57752;SDS011;43583;53.132;6.574;2023-04-15T12:33:54;1.77;;;0.32;;
57752;SDS011;43583;53.132;6.574;2023-04-15T12:36:21;2.58;;;0.20;;
57752;SDS011;43583;53.132;6.574;2023-04-15T12:38:47;4.00;;;0.80;;
57752;SDS011;43583;53.132;6.574;2023-04-15T12:41:13;6.63;;;0.30;;
57752;SDS011;43583;53.132;6.574;2023-04-15T12:43:38;0.77;;;0.17;;
57752;SDS011;43583;53.132;6.574;2023-04-15T12:46:04;1.13;;;0.13;;
57752;SDS011;43583;53.132;6.574;2023-04-15T12:48:30;5.90;;;0.20;;
57752;SDS011;43583;53.132;6.574;2023-04-15T12:50:57;2.28;;;0.32;;
57752;SDS011;43583;53.132;6.574;2023-04-15T12:53:22;3.15;;;0.68;;
57752;SDS011;43583;53.132;6.574;2023-04-15T12:55:48;2.72;;;0.30;;
57752;SDS011;43583;53.132;6.574;2023-04-15T12:58:13;4.95;;;0.20;;
57752;SDS011;43583;53.132;6.574;2023-04-15T13:00:39;3.65;;;0.30;;
57752;SDS011;43583;53.132;6.574;2023-04-15T13:03:05;2.67;;;0.20;;
57752;SDS011;43583;53.132;6.574;2023-04-15T13:05:30;6.15;;;0.35;;
57752;SDS011;43583;53.132;6.574;2023-04-15T13:07:56;1.67;;;0.22;;
57752;SDS011;43583;53.132;6.574;2023-04-15T13:10:21;5.30;;;0.40;;
57752;SDS011;43583;53.132;6.574;2023-04-15T13:12:47;2.50;;;0.28;;
57752;SDS011;43583;53.132;6.574;2023-04-15T13:15:18;3.55;;;0.85;;
57752;SDS011;43583;53.132;6.574;2023-04-15T13:17:46;2.55;;;0.32;;
57752;SDS011;43583;53.132;6.574;2023-04-15T13:20:12;6.20;;;0.50;;
57752;SDS011;43583;53.132;6.574;2023-04-15T13:22:37;5.00;;;0.65;;
57752;SDS011;43583;53.132;6.574;2023-04-15T13:25:03;2.05;;;0.10;;
57752;SDS011;43583;53.132;6.574;2023-04-15T13:27:29;4.72;;;0.32;;
57752;SDS011;43583;53.132;6.574;2023-04-15T13:29:55;2.15;;;0.30;;
57752;SDS011;43583;53.132;6.574;2023-04-15T13:32:21;4.90;;;0.20;;
57752;SDS011;43583;53.132;6.574;2023-04-15T13:34:47;4.45;;;0.57;;
57752;SDS011;43583;53.132;6.574;2023-04-15T13:37:12;1.45;;;0.15;;
57752;SDS011;43583;53.132;6.574;2023-04-15T13:39:38;3.35;;;0.10;;
57752;SDS011;43583;53.132;6.574;2023-04-15T13:42:03;3.42;;;0.22;;
57752;SDS011;43583;53.132;6.574;2023-04-15T13:44:29;4.03;;;0.52;;
57752;SDS011;43583;53.132;6.574;2023-04-15T13:46:55;2.60;;;0.35;;
57752;SDS011;43583;53.132;6.574;2023-04-15T13:49:20;7.55;;;0.63;;
57752;SDS011;43583;53.132;6.574;2023-04-15T13:51:46;1.98;;;0.77;;
57752;SDS011;43583;53.132;6.574;2023-04-15T13:54:11;2.60;;;0.30;;
57752;SDS011;43583;53.132;6.574;2023-04-15T13:56:37;1.85;;;0.47;;
57752;SDS011;43583;53.132;6.574;2023-04-15T13:59:02;2.67;;;0.30;;
57752;SDS011;43583;53.132;6.574;2023-04-15T14:01:28;5.25;;;0.30;;
57752;SDS011;43583;53.132;6.574;2023-04-15T14:03:54;4.00;;;0.28;;
57752;SDS011;43583;53.132;6.574;2023-04-15T14:06:20;4.72;;;0.30;;
57752;SDS011;43583;53.132;6.574;2023-04-15T14:08:45;4.15;;;0.70;;
57752;SDS011;43583;53.132;6.574;2023-04-15T14:11:11;7.10;;;0.77;;
57752;SDS011;43583;53.132;6.574;2023-04-15T14:13:37;4.43;;;0.20;;
57752;SDS011;43583;53.132;6.574;2023-04-15T14:16:02;3.97;;;0.38;;
57752;SDS011;43583;53.132;6.574;2023-04-15T14:18:28;4.43;;;0.20;;
57752;SDS011;43583;53.132;6.574;2023-04-15T14:20:54;6.07;;;0.30;;
57752;SDS011;43583;53.132;6.574;2023-04-15T14:23:21;3.85;;;0.20;;
57752;SDS011;43583;53.132;6.574;2023-04-15T14:25:47;4.32;;;0.20;;
57752;SDS011;43583;53.132;6.574;2023-04-15T14:28:12;5.75;;;0.40;;
57752;SDS011;43583;53.132;6.574;2023-04-15T14:30:38;5.03;;;0.20;;
57752;SDS011;43583;53.132;6.574;2023-04-15T14:33:03;1.10;;;0.20;;
57752;SDS011;43583;53.132;6.574;2023-04-15T14:35:29;2.33;;;0.40;;
57752;SDS011;43583;53.132;6.574;2023-04-15T14:37:55;2.85;;;0.32;;
57752;SDS011;43583;53.132;6.574;2023-04-15T14:40:21;5.32;;;0.35;;
57752;SDS011;43583;53.132;6.574;2023-04-15T14:42:47;3.25;;;0.20;;
57752;SDS011;43583;53.132;6.574;2023-04-15T14:45:13;2.95;;;0.20;;
57752;SDS011;43583;53.132;6.574;2023-04-15T14:47:38;3.90;;;0.55;;
57752;SDS011;43583;53.132;6.574;2023-04-15T14:50:04;3.13;;;0.28;;
57752;SDS011;43583;53.132;6.574;2023-04-15T14:52:30;6.82;;;0.32;;
57752;SDS011;43583;53.132;6.574;2023-04-15T14:55:06;5.47;;;0.40;;
57752;SDS011;43583;53.132;6.574;2023-04-15T14:57:36;5.80;;;0.28;;
57752;SDS011;43583;53.132;6.574;2023-04-15T15:00:03;2.58;;;0.25;;